sensor_id;sensor_type;location;lat;lon;timestamp;pressure;altitude;pressure_sealevel;temperature;humidity
72892;BME280;61032;50.782;6.818;2022-12-07T00:00:45;100722.69;;;6.48;79.69
72892;BME280;61032;50.782;6.818;2022-12-07T00:01:46;100711.66;;;6.40;79.27
72892;BME280;61032;50.782;6.818;2022-12-07T00:02:46;100720.44;;;6.37;79.55
72892;BME280;61032;50.782;6.818;2022-12-07T00:03:48;100720.66;;;6.40;79.27
72892;BME280;61032;50.782;6.818;2022-12-07T00:04:49;100716.81;;;6.41;79.57
72892;BME280;61032;50.782;6.818;2022-12-07T00:05:49;100713.94;;;6.33;79.11
72892;BME280;61032;50.782;6.818;2022-12-07T00:06:51;100709.88;;;6.30;79.84
72892;BME280;61032;50.782;6.818;2022-12-07T00:07:52;100716.09;;;6.36;79.95
72892;BME280;61032;50.782;6.818;2022-12-07T00:08:53;100720.94;;;6.39;79.94
72892;BME280;61032;50.782;6.818;2022-12-07T00:09:53;100715.91;;;6.46;80.04
72892;BME280;61032;50.782;6.818;2022-12-07T00:10:53;100713.91;;;6.51;79.39
72892;BME280;61032;50.782;6.818;2022-12-07T00:11:54;100717.47;;;6.52;78.98
72892;BME280;61032;50.782;6.818;2022-12-07T00:12:54;100714.00;;;6.46;79.75
72892;BME280;61032;50.782;6.818;2022-12-07T00:13:59;100714.00;;;6.46;79.04
72892;BME280;61032;50.782;6.818;2022-12-07T00:15:00;100712.50;;;6.54;78.85
72892;BME280;61032;50.782;6.818;2022-12-07T00:16:06;100708.91;;;6.59;78.40
72892;BME280;61032;50.782;6.818;2022-12-07T00:17:06;100705.94;;;6.55;77.96
72892;BME280;61032;50.782;6.818;2022-12-07T00:18:07;100710.81;;;6.58;78.73
72892;BME280;61032;50.782;6.818;2022-12-07T00:19:09;100708.38;;;6.57;79.08
72892;BME280;61032;50.782;6.818;2022-12-07T00:20:10;100709.47;;;6.55;77.92
72892;BME280;61032;50.782;6.818;2022-12-07T00:21:14;100707.13;;;6.49;79.02
72892;BME280;61032;50.782;6.818;2022-12-07T00:22:15;100708.66;;;6.55;78.97
72892;BME280;61032;50.782;6.818;2022-12-07T00:23:15;100709.16;;;6.43;79.15
72892;BME280;61032;50.782;6.818;2022-12-07T00:24:16;100710.63;;;6.36;79.42
72892;BME280;61032;50.782;6.818;2022-12-07T00:25:16;100704.88;;;6.37;79.56
72892;BME280;61032;50.782;6.818;2022-12-07T00:26:20;100705.09;;;6.41;79.59
72892;BME280;61032;50.782;6.818;2022-12-07T00:27:20;100703.88;;;6.47;79.18
72892;BME280;61032;50.782;6.818;2022-12-07T00:28:21;100706.72;;;6.42;78.75
72892;BME280;61032;50.782;6.818;2022-12-07T00:29:21;100708.81;;;6.45;79.28
72892;BME280;61032;50.782;6.818;2022-12-07T00:30:23;100699.03;;;6.44;78.97
72892;BME280;61032;50.782;6.818;2022-12-07T00:31:26;100700.81;;;6.35;79.25
72892;BME280;61032;50.782;6.818;2022-12-07T00:32:26;100702.13;;;6.37;79.97
72892;BME280;61032;50.782;6.818;2022-12-07T00:33:26;100695.00;;;6.23;79.86
72892;BME280;61032;50.782;6.818;2022-12-07T00:34:28;100691.59;;;6.31;79.75
72892;BME280;61032;50.782;6.818;2022-12-07T00:35:29;100687.22;;;6.30;79.61
72892;BME280;61032;50.782;6.818;2022-12-07T00:36:29;100682.56;;;6.30;79.89
72892;BME280;61032;50.782;6.818;2022-12-07T00:37:29;100689.38;;;6.33;79.27
72892;BME280;61032;50.782;6.818;2022-12-07T00:38:32;100684.44;;;6.35;79.89
72892;BME280;61032;50.782;6.818;2022-12-07T00:39:32;100686.78;;;6.41;80.17
72892;BME280;61032;50.782;6.818;2022-12-07T00:40:33;100681.09;;;6.38;79.67
72892;BME280;61032;50.782;6.818;2022-12-07T00:41:33;100687.66;;;6.37;80.07
72892;BME280;61032;50.782;6.818;2022-12-07T00:42:33;100694.75;;;6.38;79.51
72892;BME280;61032;50.782;6.818;2022-12-07T00:43:34;100688.25;;;6.34;79.04
72892;BME280;61032;50.782;6.818;2022-12-07T00:44:34;100682.28;;;6.32;79.86
72892;BME280;61032;50.782;6.818;2022-12-07T00:45:34;100689.44;;;6.28;79.83
72892;BME280;61032;50.782;6.818;2022-12-07T00:46:34;100679.81;;;6.16;80.57
72892;BME280;61032;50.782;6.818;2022-12-07T00:47:35;100679.91;;;6.25;80.09
72892;BME280;61032;50.782;6.818;2022-12-07T00:48:35;100682.34;;;6.27;79.44
72892;BME280;61032;50.782;6.818;2022-12-07T00:49:35;100674.69;;;6.29;79.56
72892;BME280;61032;50.782;6.818;2022-12-07T00:50:36;100673.16;;;6.23;79.88
72892;BME280;61032;50.782;6.818;2022-12-07T00:51:36;100674.84;;;6.18;79.60
72892;BME280;61032;50.782;6.818;2022-12-07T00:52:36;100673.31;;;6.12;80.51
72892;BME280;61032;50.782;6.818;2022-12-07T00:53:37;100670.50;;;6.17;80.37
72892;BME280;61032;50.782;6.818;2022-12-07T00:54:39;100672.19;;;6.13;79.87
72892;BME280;61032;50.782;6.818;2022-12-07T00:55:39;100666.97;;;6.17;80.55
72892;BME280;61032;50.782;6.818;2022-12-07T00:56:40;100667.84;;;6.12;80.35
72892;BME280;61032;50.782;6.818;2022-12-07T00:57:40;100669.41;;;6.18;80.60
72892;BME280;61032;50.782;6.818;2022-12-07T00:58:40;100669.13;;;6.01;80.40
72892;BME280;61032;50.782;6.818;2022-12-07T00:59:41;100667.91;;;6.07;80.47
72892;BME280;61032;50.782;6.818;2022-12-07T01:00:42;100670.00;;;6.15;80.24
72892;BME280;61032;50.782;6.818;2022-12-07T01:01:43;100668.19;;;6.25;79.78
72892;BME280;61032;50.782;6.818;2022-12-07T01:02:43;100678.75;;;6.12;79.65
72892;BME280;61032;50.782;6.818;2022-12-07T01:03:43;100673.09;;;5.90;80.41
72892;BME280;61032;50.782;6.818;2022-12-07T01:04:44;100675.25;;;5.88;81.16
72892;BME280;61032;50.782;6.818;2022-12-07T01:05:52;100671.53;;;6.03;80.35
72892;BME280;61032;50.782;6.818;2022-12-07T01:06:52;100672.44;;;5.98;80.82
72892;BME280;61032;50.782;6.818;2022-12-07T01:07:53;100674.06;;;5.99;80.79
72892;BME280;61032;50.782;6.818;2022-12-07T01:08:53;100676.97;;;6.03;80.97
72892;BME280;61032;50.782;6.818;2022-12-07T01:09:53;100671.53;;;6.03;81.27
72892;BME280;61032;50.782;6.818;2022-12-07T01:11:03;100674.47;;;6.06;81.08
72892;BME280;61032;50.782;6.818;2022-12-07T01:12:04;100679.56;;;6.13;80.73
72892;BME280;61032;50.782;6.818;2022-12-07T01:13:04;100672.13;;;6.18;80.40
72892;BME280;61032;50.782;6.818;2022-12-07T01:14:04;100671.31;;;6.18;80.35
72892;BME280;61032;50.782;6.818;2022-12-07T01:15:05;100679.72;;;6.22;80.10
72892;BME280;61032;50.782;6.818;2022-12-07T01:16:07;100674.28;;;6.22;80.42
72892;BME280;61032;50.782;6.818;2022-12-07T01:17:07;100670.56;;;6.12;79.99
72892;BME280;61032;50.782;6.818;2022-12-07T01:18:08;100673.22;;;6.17;80.17
72892;BME280;61032;50.782;6.818;2022-12-07T01:19:08;100682.53;;;6.16;80.37
72892;BME280;61032;50.782;6.818;2022-12-07T01:20:09;100682.75;;;6.20;80.84
72892;BME280;61032;50.782;6.818;2022-12-07T01:21:18;100678.69;;;6.17;80.24
72892;BME280;61032;50.782;6.818;2022-12-07T01:22:20;100681.34;;;6.23;80.04
72892;BME280;61032;50.782;6.818;2022-12-07T01:23:21;100680.16;;;6.29;80.03
72892;BME280;61032;50.782;6.818;2022-12-07T01:24:21;100678.22;;;6.29;80.42
72892;BME280;61032;50.782;6.818;2022-12-07T01:25:21;100688.56;;;6.32;80.23
72892;BME280;61032;50.782;6.818;2022-12-07T01:26:23;100684.88;;;6.42;80.33
72892;BME280;61032;50.782;6.818;2022-12-07T01:27:24;100683.75;;;6.43;79.22
72892;BME280;61032;50.782;6.818;2022-12-07T01:28:25;100682.22;;;6.37;80.05
72892;BME280;61032;50.782;6.818;2022-12-07T01:29:26;100688.03;;;6.30;79.69
72892;BME280;61032;50.782;6.818;2022-12-07T01:30:26;100691.59;;;6.31;80.05
72892;BME280;61032;50.782;6.818;2022-12-07T01:31:27;100680.22;;;6.42;80.08
72892;BME280;61032;50.782;6.818;2022-12-07T01:32:28;100688.41;;;6.42;79.53
72892;BME280;61032;50.782;6.818;2022-12-07T01:33:31;100690.84;;;6.44;79.20
72892;BME280;61032;50.782;6.818;2022-12-07T01:34:31;100683.44;;;6.44;79.79
72892;BME280;61032;50.782;6.818;2022-12-07T01:35:33;100678.41;;;6.51;79.62
72892;BME280;61032;50.782;6.818;2022-12-07T01:36:35;100686.53;;;6.57;78.93
72892;BME280;61032;50.782;6.818;2022-12-07T01:37:36;100687.03;;;6.59;79.01
72892;BME280;61032;50.782;6.818;2022-12-07T01:38:36;100684.91;;;6.55;79.31
72892;BME280;61032;50.782;6.818;2022-12-07T01:39:37;100689.13;;;6.48;79.51
72892;BME280;61032;50.782;6.818;2022-12-07T01:40:37;100682.66;;;6.44;79.38
72892;BME280;61032;50.782;6.818;2022-12-07T01:41:39;100685.28;;;6.49;79.13
72892;BME280;61032;50.782;6.818;2022-12-07T01:42:40;100687.31;;;6.43;79.35
72892;BME280;61032;50.782;6.818;2022-12-07T01:46:31;100687.19;;;6.48;79.55
72892;BME280;61032;50.782;6.818;2022-12-07T01:47:31;100686.81;;;6.55;79.73
72892;BME280;61032;50.782;6.818;2022-12-07T01:48:38;100687.41;;;6.52;79.09
72892;BME280;61032;50.782;6.818;2022-12-07T01:49:44;100685.88;;;6.46;79.45
72892;BME280;61032;50.782;6.818;2022-12-07T01:50:48;100687.31;;;6.43;79.58
72892;BME280;61032;50.782;6.818;2022-12-07T01:51:52;100691.34;;;6.46;79.91
72892;BME280;61032;50.782;6.818;2022-12-07T01:52:56;100685.19;;;6.54;80.11
72892;BME280;61032;50.782;6.818;2022-12-07T01:54:00;100685.63;;;6.61;79.55
72892;BME280;61032;50.782;6.818;2022-12-07T01:55:07;100679.16;;;6.57;79.00
72892;BME280;61032;50.782;6.818;2022-12-07T01:56:10;100681.28;;;6.60;79.48
72892;BME280;61032;50.782;6.818;2022-12-07T01:57:11;100684.53;;;6.62;79.51
72892;BME280;61032;50.782;6.818;2022-12-07T01:58:14;100680.13;;;6.47;79.37
72892;BME280;61032;50.782;6.818;2022-12-07T01:59:16;100683.66;;;6.48;80.18
72892;BME280;61032;50.782;6.818;2022-12-07T02:00:18;100676.41;;;6.57;79.92
72892;BME280;61032;50.782;6.818;2022-12-07T02:01:19;100681.28;;;6.60;79.77
72892;BME280;61032;50.782;6.818;2022-12-07T02:02:44;100672.06;;;6.56;78.90
72892;BME280;61032;50.782;6.818;2022-12-07T02:03:46;100675.09;;;6.54;79.71
72892;BME280;61032;50.782;6.818;2022-12-07T02:04:47;100685.72;;;6.56;80.19
72892;BME280;61032;50.782;6.818;2022-12-07T02:05:47;100678.56;;;6.60;79.44
72892;BME280;61032;50.782;6.818;2022-12-07T02:06:50;100677.16;;;6.63;79.55
72892;BME280;61032;50.782;6.818;2022-12-07T02:07:53;100674.88;;;6.51;79.48
72892;BME280;61032;50.782;6.818;2022-12-07T02:08:54;100673.31;;;6.45;79.70
72892;BME280;61032;50.782;6.818;2022-12-07T02:09:55;100665.47;;;6.43;80.17
72892;BME280;61032;50.782;6.818;2022-12-07T02:10:55;100669.47;;;6.46;80.32
72892;BME280;61032;50.782;6.818;2022-12-07T02:11:56;100668.53;;;6.55;79.73
72892;BME280;61032;50.782;6.818;2022-12-07T02:13:16;100666.38;;;6.52;79.44
72892;BME280;61032;50.782;6.818;2022-12-07T02:14:18;100664.13;;;6.41;79.68
72892;BME280;61032;50.782;6.818;2022-12-07T02:15:20;100665.16;;;6.26;80.11
72892;BME280;61032;50.782;6.818;2022-12-07T02:18:00;100661.47;;;6.36;80.65
72892;BME280;61032;50.782;6.818;2022-12-07T02:20:28;100664.13;;;6.41;80.61
72892;BME280;61032;50.782;6.818;2022-12-07T02:21:45;100660.47;;;6.45;80.18
72892;BME280;61032;50.782;6.818;2022-12-07T02:26:55;100663.84;;;6.42;80.69
72892;BME280;61032;50.782;6.818;2022-12-07T02:28:05;100654.03;;;6.41;80.21
72892;BME280;61032;50.782;6.818;2022-12-07T02:29:13;100656.94;;;6.45;80.00
72892;BME280;61032;50.782;6.818;2022-12-07T02:30:21;100649.38;;;6.42;80.49
72892;BME280;61032;50.782;6.818;2022-12-07T02:31:23;100655.41;;;6.39;80.66
72892;BME280;61032;50.782;6.818;2022-12-07T02:32:30;100659.19;;;6.43;80.48
72892;BME280;61032;50.782;6.818;2022-12-07T02:33:40;100661.91;;;6.43;80.53
72892;BME280;61032;50.782;6.818;2022-12-07T02:35:57;100659.81;;;6.53;80.67
72892;BME280;61032;50.782;6.818;2022-12-07T02:37:06;100655.59;;;6.61;79.86
72892;BME280;61032;50.782;6.818;2022-12-07T02:38:19;100652.84;;;6.61;80.00
72892;BME280;61032;50.782;6.818;2022-12-07T02:39:28;100659.13;;;6.62;79.88
72892;BME280;61032;50.782;6.818;2022-12-07T02:41:34;100653.63;;;6.48;80.15
72892;BME280;61032;50.782;6.818;2022-12-07T02:42:45;100660.19;;;6.47;80.14
72892;BME280;61032;50.782;6.818;2022-12-07T02:44:08;100650.06;;;6.47;80.18
72892;BME280;61032;50.782;6.818;2022-12-07T02:45:12;100651.69;;;6.48;80.20
72892;BME280;61032;50.782;6.818;2022-12-07T02:46:17;100651.31;;;6.55;79.50
72892;BME280;61032;50.782;6.818;2022-12-07T02:47:21;100650.22;;;6.56;79.61
72892;BME280;61032;50.782;6.818;2022-12-07T02:48:24;100646.16;;;6.53;80.04
72892;BME280;61032;50.782;6.818;2022-12-07T02:49:26;100653.53;;;6.53;80.02
72892;BME280;61032;50.782;6.818;2022-12-07T02:50:28;100652.34;;;6.59;80.21
72892;BME280;61032;50.782;6.818;2022-12-07T02:51:32;100649.91;;;6.58;79.29
72892;BME280;61032;50.782;6.818;2022-12-07T02:52:33;100650.81;;;6.53;79.45
72892;BME280;61032;50.782;6.818;2022-12-07T02:53:42;100650.44;;;6.60;79.06
72892;BME280;61032;50.782;6.818;2022-12-07T02:54:43;100654.13;;;6.50;79.34
72892;BME280;61032;50.782;6.818;2022-12-07T02:55:44;100652.09;;;6.42;79.89
72892;BME280;61032;50.782;6.818;2022-12-07T02:56:52;100652.19;;;6.37;80.59
72892;BME280;61032;50.782;6.818;2022-12-07T02:58:27;100647.91;;;6.31;80.38
72892;BME280;61032;50.782;6.818;2022-12-07T03:01:30;100640.47;;;6.17;81.59
72892;BME280;61032;50.782;6.818;2022-12-07T03:02:41;100651.19;;;6.14;81.58
72892;BME280;61032;50.782;6.818;2022-12-07T03:03:47;100650.16;;;6.10;81.37
72892;BME280;61032;50.782;6.818;2022-12-07T03:05:07;100653.25;;;6.03;82.36
72892;BME280;61032;50.782;6.818;2022-12-07T03:06:28;100659.81;;;6.02;82.48
72892;BME280;61032;50.782;6.818;2022-12-07T03:07:51;100649.84;;;6.11;81.76
72892;BME280;61032;50.782;6.818;2022-12-07T03:11:48;100642.91;;;6.19;82.46
72892;BME280;61032;50.782;6.818;2022-12-07T03:12:57;100645.75;;;6.28;81.62
72892;BME280;61032;50.782;6.818;2022-12-07T03:14:11;100651.75;;;6.30;81.25
72892;BME280;61032;50.782;6.818;2022-12-07T03:15:31;100647.78;;;6.22;81.82
72892;BME280;61032;50.782;6.818;2022-12-07T03:17:38;100649.00;;;6.30;81.50
72892;BME280;61032;50.782;6.818;2022-12-07T03:18:53;100647.38;;;6.29;81.21
72892;BME280;61032;50.782;6.818;2022-12-07T03:19:58;100650.13;;;6.29;81.59
72892;BME280;61032;50.782;6.818;2022-12-07T03:21:02;100657.41;;;6.33;81.82
72892;BME280;61032;50.782;6.818;2022-12-07T03:22:08;100654.91;;;6.37;81.49
72892;BME280;61032;50.782;6.818;2022-12-07T03:23:10;100650.47;;;6.41;80.93
72892;BME280;61032;50.782;6.818;2022-12-07T03:24:15;100652.63;;;6.44;81.04
72892;BME280;61032;50.782;6.818;2022-12-07T03:25:18;100646.22;;;6.48;80.59
72892;BME280;61032;50.782;6.818;2022-12-07T03:26:19;100644.59;;;6.47;80.35
72892;BME280;61032;50.782;6.818;2022-12-07T03:27:31;100648.44;;;6.46;80.62
72892;BME280;61032;50.782;6.818;2022-12-07T03:28:35;100645.19;;;6.44;80.78
72892;BME280;61032;50.782;6.818;2022-12-07T03:29:39;100649.25;;;6.47;80.57
72892;BME280;61032;50.782;6.818;2022-12-07T03:30:49;100646.53;;;6.47;80.47
72892;BME280;61032;50.782;6.818;2022-12-07T03:31:56;100647.84;;;6.49;80.52
72892;BME280;61032;50.782;6.818;2022-12-07T03:33:33;100650.28;;;6.51;80.70
72892;BME280;61032;50.782;6.818;2022-12-07T03:34:49;100646.97;;;6.54;80.76
72892;BME280;61032;50.782;6.818;2022-12-07T03:36:06;100647.25;;;6.52;80.94
72892;BME280;61032;50.782;6.818;2022-12-07T03:38:13;100647.03;;;6.49;80.16
72892;BME280;61032;50.782;6.818;2022-12-07T03:39:22;100654.13;;;6.50;80.60
72892;BME280;61032;50.782;6.818;2022-12-07T03:40:45;100662.41;;;6.45;80.48
72892;BME280;61032;50.782;6.818;2022-12-07T03:41:50;100655.34;;;6.44;80.39
72892;BME280;61032;50.782;6.818;2022-12-07T03:42:52;100653.50;;;6.39;80.84
72892;BME280;61032;50.782;6.818;2022-12-07T03:43:55;100641.06;;;6.47;80.65
72892;BME280;61032;50.782;6.818;2022-12-07T03:44:56;100648.44;;;6.46;80.67
72892;BME280;61032;50.782;6.818;2022-12-07T03:46:08;100647.03;;;6.49;80.82
72892;BME280;61032;50.782;6.818;2022-12-07T03:48:24;100651.63;;;6.53;80.43
72892;BME280;61032;50.782;6.818;2022-12-07T03:49:31;100656.78;;;6.55;80.38
72892;BME280;61032;50.782;6.818;2022-12-07T03:50:56;100660.03;;;6.57;80.90
72892;BME280;61032;50.782;6.818;2022-12-07T03:53:30;100656.78;;;6.55;80.45
72892;BME280;61032;50.782;6.818;2022-12-07T03:55:57;100652.16;;;6.69;80.05
72892;BME280;61032;50.782;6.818;2022-12-07T03:56:58;100657.63;;;6.69;79.80
72892;BME280;61032;50.782;6.818;2022-12-07T03:58:05;100648.81;;;6.72;79.77
72892;BME280;61032;50.782;6.818;2022-12-07T03:59:07;100651.75;;;6.62;80.20
72892;BME280;61032;50.782;6.818;2022-12-07T04:00:10;100654.38;;;6.67;79.69
72892;BME280;61032;50.782;6.818;2022-12-07T04:01:11;100655.59;;;6.61;79.03
72892;BME280;61032;50.782;6.818;2022-12-07T04:02:13;100658.19;;;6.52;80.20
72892;BME280;61032;50.782;6.818;2022-12-07T04:03:13;100645.53;;;6.43;80.37
72892;BME280;61032;50.782;6.818;2022-12-07T04:04:13;100655.34;;;6.44;80.33
72892;BME280;61032;50.782;6.818;2022-12-07T04:05:14;100646.22;;;6.48;80.23
72892;BME280;61032;50.782;6.818;2022-12-07T04:06:14;100648.88;;;6.53;80.71
72892;BME280;61032;50.782;6.818;2022-12-07T04:07:14;100654.88;;;6.55;80.39
72892;BME280;61032;50.782;6.818;2022-12-07T04:08:15;100658.19;;;6.52;80.49
72892;BME280;61032;50.782;6.818;2022-12-07T04:09:15;100654.25;;;6.59;80.64
72892;BME280;61032;50.782;6.818;2022-12-07T04:10:16;100653.75;;;6.57;79.98
72892;BME280;61032;50.782;6.818;2022-12-07T04:11:17;100648.72;;;6.64;80.05
72892;BME280;61032;50.782;6.818;2022-12-07T04:12:17;100651.03;;;6.70;79.68
72892;BME280;61032;50.782;6.818;2022-12-07T04:13:18;100643.56;;;6.62;79.43
72892;BME280;61032;50.782;6.818;2022-12-07T04:14:18;100648.41;;;6.65;80.08
72892;BME280;61032;50.782;6.818;2022-12-07T04:15:19;100643.03;;;6.60;79.93
72892;BME280;61032;50.782;6.818;2022-12-07T04:16:19;100647.41;;;6.61;80.48
72892;BME280;61032;50.782;6.818;2022-12-07T04:17:19;100642.94;;;6.65;80.33
72892;BME280;61032;50.782;6.818;2022-12-07T04:18:20;100646.69;;;6.69;79.70
72892;BME280;61032;50.782;6.818;2022-12-07T04:19:22;100648.31;;;6.70;79.64
72892;BME280;61032;50.782;6.818;2022-12-07T04:20:23;100645.50;;;6.75;79.73
72892;BME280;61032;50.782;6.818;2022-12-07T04:21:23;100648.75;;;6.77;79.40
72892;BME280;61032;50.782;6.818;2022-12-07T04:22:23;100646.53;;;6.79;78.83
72892;BME280;61032;50.782;6.818;2022-12-07T04:23:23;100649.25;;;6.79;79.07
72892;BME280;61032;50.782;6.818;2022-12-07T04:24:24;100647.94;;;6.77;78.95
72892;BME280;61032;50.782;6.818;2022-12-07T04:25:25;100651.97;;;6.79;79.01
72892;BME280;61032;50.782;6.818;2022-12-07T04:26:25;100647.63;;;6.78;78.90
72892;BME280;61032;50.782;6.818;2022-12-07T04:27:25;100647.03;;;6.81;78.98
72892;BME280;61032;50.782;6.818;2022-12-07T04:28:26;100647.03;;;6.81;79.10
72892;BME280;61032;50.782;6.818;2022-12-07T04:29:26;100648.06;;;6.85;79.12
72892;BME280;61032;50.782;6.818;2022-12-07T04:30:27;100644.69;;;6.88;78.66
72892;BME280;61032;50.782;6.818;2022-12-07T04:31:27;100647.63;;;6.92;78.76
72892;BME280;61032;50.782;6.818;2022-12-07T04:32:28;100646.31;;;6.89;78.29
72892;BME280;61032;50.782;6.818;2022-12-07T04:33:28;100651.78;;;6.89;78.69
72892;BME280;61032;50.782;6.818;2022-12-07T04:34:28;100641.97;;;6.88;78.70
72892;BME280;61032;50.782;6.818;2022-12-07T04:35:29;100644.19;;;6.86;78.79
72892;BME280;61032;50.782;6.818;2022-12-07T04:36:30;100644.09;;;6.92;78.37
72892;BME280;61032;50.782;6.818;2022-12-07T04:37:30;100642.16;;;6.92;78.06
72892;BME280;61032;50.782;6.818;2022-12-07T04:38:31;100641.44;;;6.86;78.33
72892;BME280;61032;50.782;6.818;2022-12-07T04:39:32;100643.06;;;6.87;78.24
72892;BME280;61032;50.782;6.818;2022-12-07T04:40:33;100645.81;;;6.87;77.89
72892;BME280;61032;50.782;6.818;2022-12-07T04:41:33;100646.66;;;6.55;78.67
72892;BME280;61032;50.782;6.818;2022-12-07T04:42:33;100640.81;;;6.62;79.04
72892;BME280;61032;50.782;6.818;2022-12-07T04:43:35;100646.59;;;6.61;79.39
72892;BME280;61032;50.782;6.818;2022-12-07T04:44:35;100640.31;;;6.60;79.35
72892;BME280;61032;50.782;6.818;2022-12-07T04:45:35;100642.44;;;6.63;79.31
72892;BME280;61032;50.782;6.818;2022-12-07T04:46:36;100642.94;;;6.65;78.64
72892;BME280;61032;50.782;6.818;2022-12-07T04:47:36;100646.66;;;6.55;78.79
72892;BME280;61032;50.782;6.818;2022-12-07T04:48:36;100642.09;;;6.51;79.24
72892;BME280;61032;50.782;6.818;2022-12-07T04:49:37;100643.63;;;6.57;79.75
72892;BME280;61032;50.782;6.818;2022-12-07T04:50:37;100645.47;;;6.62;79.37
72892;BME280;61032;50.782;6.818;2022-12-07T04:51:38;100640.19;;;6.65;79.22
72892;BME280;61032;50.782;6.818;2022-12-07T04:52:38;100640.81;;;6.62;78.96
72892;BME280;61032;50.782;6.818;2022-12-07T04:53:39;100637.28;;;6.62;79.14
72892;BME280;61032;50.782;6.818;2022-12-07T04:54:39;100639.72;;;6.63;79.38
72892;BME280;61032;50.782;6.818;2022-12-07T04:55:39;100639.19;;;6.61;78.94
72892;BME280;61032;50.782;6.818;2022-12-07T04:56:39;100637.47;;;6.65;79.16
72892;BME280;61032;50.782;6.818;2022-12-07T04:57:40;100637.16;;;6.67;79.18
72892;BME280;61032;50.782;6.818;2022-12-07T04:58:41;100640.53;;;6.64;79.52
72892;BME280;61032;50.782;6.818;2022-12-07T04:59:41;100630.09;;;6.66;78.97
72892;BME280;61032;50.782;6.818;2022-12-07T05:00:42;100640.19;;;6.65;78.90
72892;BME280;61032;50.782;6.818;2022-12-07T05:01:42;100636.56;;;6.70;78.83
72892;BME280;61032;50.782;6.818;2022-12-07T05:02:42;100643.16;;;6.69;78.49
72892;BME280;61032;50.782;6.818;2022-12-07T05:03:43;100639.09;;;6.66;78.67
72892;BME280;61032;50.782;6.818;2022-12-07T05:04:43;100642.09;;;6.51;78.65
72892;BME280;61032;50.782;6.818;2022-12-07T05:05:43;100640.19;;;6.51;78.54
72892;BME280;61032;50.782;6.818;2022-12-07T05:06:43;100642.81;;;6.57;79.24
72892;BME280;61032;50.782;6.818;2022-12-07T05:07:44;100638.09;;;6.62;79.34
72892;BME280;61032;50.782;6.818;2022-12-07T05:08:44;100639.44;;;6.78;78.44
72892;BME280;61032;50.782;6.818;2022-12-07T05:09:45;100637.78;;;6.64;78.27
72892;BME280;61032;50.782;6.818;2022-12-07T05:10:45;100640.63;;;6.59;78.85
72892;BME280;61032;50.782;6.818;2022-12-07T05:11:45;100635.16;;;6.59;78.91
72892;BME280;61032;50.782;6.818;2022-12-07T05:12:46;100636.34;;;6.52;78.74
72892;BME280;61032;50.782;6.818;2022-12-07T05:13:46;100643.22;;;6.50;78.68
72892;BME280;61032;50.782;6.818;2022-12-07T05:14:47;100633.91;;;6.51;78.92
72892;BME280;61032;50.782;6.818;2022-12-07T05:15:47;100636.63;;;6.51;78.66
72892;BME280;61032;50.782;6.818;2022-12-07T05:16:50;100636.47;;;6.29;79.17
72892;BME280;61032;50.782;6.818;2022-12-07T05:17:50;100640.63;;;6.07;79.88
72892;BME280;61032;50.782;6.818;2022-12-07T05:18:52;100637.81;;;6.12;80.28
72892;BME280;61032;50.782;6.818;2022-12-07T05:19:52;100638.72;;;6.08;80.46
72892;BME280;61032;50.782;6.818;2022-12-07T05:20:53;100636.78;;;6.08;79.87
72892;BME280;61032;50.782;6.818;2022-12-07T05:21:53;100641.97;;;6.10;80.04
72892;BME280;61032;50.782;6.818;2022-12-07T05:22:54;100644.69;;;6.10;80.20
72892;BME280;61032;50.782;6.818;2022-12-07T05:23:54;100645.50;;;6.10;80.39
72892;BME280;61032;50.782;6.818;2022-12-07T05:24:55;100647.94;;;6.12;80.45
72892;BME280;61032;50.782;6.818;2022-12-07T05:25:55;100646.31;;;6.11;79.85
72892;BME280;61032;50.782;6.818;2022-12-07T05:26:55;100648.22;;;6.10;80.61
72892;BME280;61032;50.782;6.818;2022-12-07T05:27:56;100645.50;;;6.10;80.04
72892;BME280;61032;50.782;6.818;2022-12-07T05:28:57;100638.94;;;6.11;79.90
72892;BME280;61032;50.782;6.818;2022-12-07T05:29:57;100647.63;;;6.13;79.24
72892;BME280;61032;50.782;6.818;2022-12-07T05:30:57;100641.66;;;6.11;79.65
72892;BME280;61032;50.782;6.818;2022-12-07T05:31:58;100645.50;;;6.10;79.98
72892;BME280;61032;50.782;6.818;2022-12-07T05:32:58;100647.13;;;6.11;79.78
72892;BME280;61032;50.782;6.818;2022-12-07T05:33:58;100645.56;;;6.05;80.17
72892;BME280;61032;50.782;6.818;2022-12-07T05:34:58;100650.31;;;6.00;80.44
72892;BME280;61032;50.782;6.818;2022-12-07T05:35:59;100645.97;;;5.99;80.41
72892;BME280;61032;50.782;6.818;2022-12-07T05:37:05;100651.94;;;6.01;80.22
72892;BME280;61032;50.782;6.818;2022-12-07T05:38:05;100646.47;;;6.01;80.11
72892;BME280;61032;50.782;6.818;2022-12-07T05:39:06;100642.03;;;6.05;80.24
72892;BME280;61032;50.782;6.818;2022-12-07T05:40:08;100650.97;;;6.10;80.09
72892;BME280;61032;50.782;6.818;2022-12-07T05:41:12;100648.16;;;6.15;79.78
72892;BME280;61032;50.782;6.818;2022-12-07T05:42:34;100643.28;;;6.12;79.40
72892;BME280;61032;50.782;6.818;2022-12-07T05:43:34;100655.59;;;6.10;78.94
72892;BME280;61032;50.782;6.818;2022-12-07T05:44:34;100650.97;;;6.10;79.08
72892;BME280;61032;50.782;6.818;2022-12-07T05:45:35;100649.34;;;6.09;79.45
72892;BME280;61032;50.782;6.818;2022-12-07T05:46:35;100642.84;;;6.05;79.72
72892;BME280;61032;50.782;6.818;2022-12-07T05:47:35;100642.78;;;5.92;79.50
72892;BME280;61032;50.782;6.818;2022-12-07T05:48:36;100648.69;;;5.99;79.43
72892;BME280;61032;50.782;6.818;2022-12-07T05:49:36;100639.41;;;6.00;79.39
72892;BME280;61032;50.782;6.818;2022-12-07T05:50:37;100642.41;;;5.98;79.25
72892;BME280;61032;50.782;6.818;2022-12-07T05:51:37;100641.63;;;5.98;80.18
72892;BME280;61032;50.782;6.818;2022-12-07T05:52:38;100641.97;;;5.91;79.98
72892;BME280;61032;50.782;6.818;2022-12-07T05:53:38;100636.81;;;5.90;80.62
72892;BME280;61032;50.782;6.818;2022-12-07T05:54:38;100636.44;;;5.96;79.96
72892;BME280;61032;50.782;6.818;2022-12-07T05:55:39;100640.00;;;5.97;79.46
72892;BME280;61032;50.782;6.818;2022-12-07T05:56:39;100642.19;;;5.95;79.79